sensor_id;sensor_type;location;lat;lon;timestamp;P1;durP1;ratioP1;P2;durP2;ratioP2
84682;SDS011;74905;44.124;18.116;2024-02-16T00:00:10;208.43;;;75.45;;
84682;SDS011;74905;44.124;18.116;2024-02-16T00:02:41;187.43;;;69.60;;
84682;SDS011;74905;44.124;18.116;2024-02-16T00:05:08;193.30;;;69.50;;
84682;SDS011;74905;44.124;18.116;2024-02-16T00:07:36;187.88;;;69.28;;
84682;SDS011;74905;44.124;18.116;2024-02-16T00:10:04;168.68;;;62.65;;
84682;SDS011;74905;44.124;18.116;2024-02-16T00:12:31;142.18;;;56.92;;
84682;SDS011;74905;44.124;18.116;2024-02-16T00:14:59;121.00;;;51.88;;
84682;SDS011;74905;44.124;18.116;2024-02-16T00:17:26;156.82;;;60.25;;
84682;SDS011;74905;44.124;18.116;2024-02-16T00:19:52;113.25;;;43.38;;
84682;SDS011;74905;44.124;18.116;2024-02-16T00:22:18;111.70;;;45.67;;
84682;SDS011;74905;44.124;18.116;2024-02-16T00:24:44;113.78;;;47.00;;
84682;SDS011;74905;44.124;18.116;2024-02-16T00:27:10;125.85;;;46.35;;
84682;SDS011;74905;44.124;18.116;2024-02-16T00:29:35;139.57;;;50.28;;
84682;SDS011;74905;44.124;18.116;2024-02-16T00:32:03;138.20;;;51.50;;
84682;SDS011;74905;44.124;18.116;2024-02-16T00:34:31;146.00;;;55.63;;
84682;SDS011;74905;44.124;18.116;2024-02-16T00:36:57;165.10;;;61.08;;
84682;SDS011;74905;44.124;18.116;2024-02-16T00:39:23;165.32;;;58.47;;
84682;SDS011;74905;44.124;18.116;2024-02-16T00:41:50;163.23;;;60.55;;
84682;SDS011;74905;44.124;18.116;2024-02-16T00:44:16;148.88;;;56.25;;
84682;SDS011;74905;44.124;18.116;2024-02-16T00:46:42;157.77;;;58.25;;
84682;SDS011;74905;44.124;18.116;2024-02-16T00:49:11;151.15;;;55.63;;
84682;SDS011;74905;44.124;18.116;2024-02-16T00:51:37;144.18;;;55.38;;
84682;SDS011;74905;44.124;18.116;2024-02-16T00:54:03;149.95;;;56.30;;
84682;SDS011;74905;44.124;18.116;2024-02-16T00:56:29;139.48;;;54.45;;
84682;SDS011;74905;44.124;18.116;2024-02-16T00:58:56;150.13;;;56.28;;
84682;SDS011;74905;44.124;18.116;2024-02-16T01:01:21;140.90;;;51.03;;
84682;SDS011;74905;44.124;18.116;2024-02-16T01:03:48;139.05;;;53.60;;
84682;SDS011;74905;44.124;18.116;2024-02-16T01:06:14;155.85;;;57.78;;
84682;SDS011;74905;44.124;18.116;2024-02-16T01:08:40;138.40;;;58.08;;
84682;SDS011;74905;44.124;18.116;2024-02-16T01:11:06;143.07;;;53.90;;
84682;SDS011;74905;44.124;18.116;2024-02-16T01:13:31;130.35;;;49.13;;
84682;SDS011;74905;44.124;18.116;2024-02-16T01:15:58;159.93;;;56.90;;
84682;SDS011;74905;44.124;18.116;2024-02-16T01:18:25;155.07;;;57.00;;
84682;SDS011;74905;44.124;18.116;2024-02-16T01:20:51;144.20;;;56.25;;
84682;SDS011;74905;44.124;18.116;2024-02-16T01:23:17;143.55;;;57.90;;
84682;SDS011;74905;44.124;18.116;2024-02-16T01:25:43;227.27;;;75.90;;
84682;SDS011;74905;44.124;18.116;2024-02-16T01:28:08;237.57;;;84.75;;
84682;SDS011;74905;44.124;18.116;2024-02-16T01:30:34;239.80;;;85.53;;
84682;SDS011;74905;44.124;18.116;2024-02-16T01:32:59;206.55;;;72.00;;
84682;SDS011;74905;44.124;18.116;2024-02-16T01:35:25;243.65;;;85.97;;
84682;SDS011;74905;44.124;18.116;2024-02-16T01:37:50;244.13;;;90.80;;
84682;SDS011;74905;44.124;18.116;2024-02-16T01:40:16;255.75;;;91.20;;
84682;SDS011;74905;44.124;18.116;2024-02-16T01:42:43;248.27;;;88.20;;
84682;SDS011;74905;44.124;18.116;2024-02-16T01:45:09;214.95;;;73.35;;
84682;SDS011;74905;44.124;18.116;2024-02-16T01:47:37;233.25;;;60.05;;
84682;SDS011;74905;44.124;18.116;2024-02-16T01:50:03;173.65;;;56.17;;
84682;SDS011;74905;44.124;18.116;2024-02-16T01:52:30;198.80;;;58.38;;
84682;SDS011;74905;44.124;18.116;2024-02-16T01:54:56;211.68;;;57.63;;
84682;SDS011;74905;44.124;18.116;2024-02-16T01:57:23;177.15;;;60.60;;
84682;SDS011;74905;44.124;18.116;2024-02-16T01:59:49;173.15;;;55.92;;
84682;SDS011;74905;44.124;18.116;2024-02-16T02:02:15;201.15;;;61.70;;
84682;SDS011;74905;44.124;18.116;2024-02-16T02:04:41;189.82;;;59.83;;
84682;SDS011;74905;44.124;18.116;2024-02-16T02:07:16;233.63;;;60.47;;
84682;SDS011;74905;44.124;18.116;2024-02-16T02:09:42;174.93;;;55.58;;
84682;SDS011;74905;44.124;18.116;2024-02-16T02:12:08;191.43;;;55.30;;
84682;SDS011;74905;44.124;18.116;2024-02-16T02:14:35;171.68;;;54.55;;
84682;SDS011;74905;44.124;18.116;2024-02-16T02:17:01;160.35;;;53.45;;
84682;SDS011;74905;44.124;18.116;2024-02-16T02:19:29;158.85;;;55.90;;
84682;SDS011;74905;44.124;18.116;2024-02-16T02:21:55;176.63;;;55.80;;
84682;SDS011;74905;44.124;18.116;2024-02-16T02:24:24;161.63;;;51.15;;
84682;SDS011;74905;44.124;18.116;2024-02-16T02:26:49;157.48;;;56.10;;
84682;SDS011;74905;44.124;18.116;2024-02-16T02:29:15;181.75;;;54.78;;
84682;SDS011;74905;44.124;18.116;2024-02-16T02:31:40;204.43;;;55.03;;
84682;SDS011;74905;44.124;18.116;2024-02-16T02:34:06;202.23;;;56.00;;
84682;SDS011;74905;44.124;18.116;2024-02-16T02:36:31;204.93;;;53.63;;
84682;SDS011;74905;44.124;18.116;2024-02-16T02:39:00;164.25;;;53.42;;
84682;SDS011;74905;44.124;18.116;2024-02-16T02:41:26;197.93;;;56.40;;
84682;SDS011;74905;44.124;18.116;2024-02-16T02:43:52;170.18;;;54.15;;
84682;SDS011;74905;44.124;18.116;2024-02-16T02:46:18;218.18;;;55.58;;
84682;SDS011;74905;44.124;18.116;2024-02-16T02:48:44;205.05;;;54.72;;
84682;SDS011;74905;44.124;18.116;2024-02-16T02:51:11;164.23;;;52.17;;
84682;SDS011;74905;44.124;18.116;2024-02-16T02:53:37;246.38;;;61.42;;
84682;SDS011;74905;44.124;18.116;2024-02-16T02:56:03;230.88;;;60.67;;
84682;SDS011;74905;44.124;18.116;2024-02-16T02:58:29;189.35;;;57.00;;
84682;SDS011;74905;44.124;18.116;2024-02-16T03:00:55;201.18;;;56.95;;
84682;SDS011;74905;44.124;18.116;2024-02-16T03:03:21;173.48;;;55.40;;
84682;SDS011;74905;44.124;18.116;2024-02-16T03:05:47;179.80;;;54.80;;
84682;SDS011;74905;44.124;18.116;2024-02-16T03:08:13;180.82;;;52.17;;
84682;SDS011;74905;44.124;18.116;2024-02-16T03:10:39;195.23;;;52.20;;
84682;SDS011;74905;44.124;18.116;2024-02-16T03:13:06;169.88;;;51.50;;
84682;SDS011;74905;44.124;18.116;2024-02-16T03:15:34;220.23;;;55.00;;
84682;SDS011;74905;44.124;18.116;2024-02-16T03:18:01;186.93;;;53.05;;
84682;SDS011;74905;44.124;18.116;2024-02-16T03:20:27;182.32;;;53.85;;
84682;SDS011;74905;44.124;18.116;2024-02-16T03:22:53;159.38;;;52.72;;
84682;SDS011;74905;44.124;18.116;2024-02-16T03:25:19;207.90;;;54.90;;
84682;SDS011;74905;44.124;18.116;2024-02-16T03:27:45;198.02;;;53.20;;
84682;SDS011;74905;44.124;18.116;2024-02-16T03:30:11;161.77;;;48.40;;
84682;SDS011;74905;44.124;18.116;2024-02-16T03:32:36;153.63;;;50.13;;
84682;SDS011;74905;44.124;18.116;2024-02-16T03:35:03;182.40;;;48.45;;
84682;SDS011;74905;44.124;18.116;2024-02-16T03:37:29;130.35;;;48.95;;
84682;SDS011;74905;44.124;18.116;2024-02-16T03:39:55;148.82;;;49.47;;
84682;SDS011;74905;44.124;18.116;2024-02-16T03:42:21;145.00;;;48.55;;
84682;SDS011;74905;44.124;18.116;2024-02-16T03:44:46;148.55;;;46.35;;
84682;SDS011;74905;44.124;18.116;2024-02-16T03:47:12;137.15;;;45.95;;
84682;SDS011;74905;44.124;18.116;2024-02-16T03:49:38;120.07;;;48.17;;
84682;SDS011;74905;44.124;18.116;2024-02-16T03:52:04;123.05;;;48.95;;
84682;SDS011;74905;44.124;18.116;2024-02-16T03:54:30;110.28;;;46.80;;
84682;SDS011;74905;44.124;18.116;2024-02-16T03:56:56;118.85;;;44.78;;
84682;SDS011;74905;44.124;18.116;2024-02-16T03:59:21;114.70;;;44.50;;
84682;SDS011;74905;44.124;18.116;2024-02-16T04:01:48;117.15;;;45.40;;
84682;SDS011;74905;44.124;18.116;2024-02-16T04:04:14;125.03;;;44.85;;
84682;SDS011;74905;44.124;18.116;2024-02-16T04:06:40;123.40;;;46.97;;
84682;SDS011;74905;44.124;18.116;2024-02-16T04:09:06;110.00;;;42.70;;
84682;SDS011;74905;44.124;18.116;2024-02-16T04:11:32;135.32;;;43.92;;
84682;SDS011;74905;44.124;18.116;2024-02-16T04:13:58;127.82;;;43.42;;
84682;SDS011;74905;44.124;18.116;2024-02-16T04:16:23;147.98;;;43.08;;
84682;SDS011;74905;44.124;18.116;2024-02-16T04:18:53;111.57;;;40.55;;
84682;SDS011;74905;44.124;18.116;2024-02-16T04:21:19;143.40;;;45.72;;
84682;SDS011;74905;44.124;18.116;2024-02-16T04:23:45;142.98;;;44.72;;
84682;SDS011;74905;44.124;18.116;2024-02-16T04:26:11;142.70;;;44.47;;
84682;SDS011;74905;44.124;18.116;2024-02-16T04:28:37;129.13;;;43.67;;
84682;SDS011;74905;44.124;18.116;2024-02-16T04:31:03;149.30;;;44.83;;
84682;SDS011;74905;44.124;18.116;2024-02-16T04:33:28;162.32;;;45.38;;
84682;SDS011;74905;44.124;18.116;2024-02-16T04:35:54;138.05;;;42.55;;
84682;SDS011;74905;44.124;18.116;2024-02-16T04:38:19;159.77;;;43.60;;
84682;SDS011;74905;44.124;18.116;2024-02-16T04:40:45;163.80;;;43.47;;
84682;SDS011;74905;44.124;18.116;2024-02-16T04:43:11;164.55;;;43.70;;
84682;SDS011;74905;44.124;18.116;2024-02-16T04:45:36;113.38;;;41.83;;
84682;SDS011;74905;44.124;18.116;2024-02-16T04:48:06;161.15;;;44.90;;
84682;SDS011;74905;44.124;18.116;2024-02-16T04:50:32;138.40;;;47.35;;
84682;SDS011;74905;44.124;18.116;2024-02-16T04:52:58;140.90;;;43.33;;
84682;SDS011;74905;44.124;18.116;2024-02-16T04:55:27;143.63;;;44.50;;
84682;SDS011;74905;44.124;18.116;2024-02-16T04:57:54;141.75;;;45.20;;
84682;SDS011;74905;44.124;18.116;2024-02-16T05:00:20;206.40;;;44.92;;
84682;SDS011;74905;44.124;18.116;2024-02-16T05:02:46;132.80;;;41.90;;
84682;SDS011;74905;44.124;18.116;2024-02-16T05:05:11;123.78;;;42.63;;
84682;SDS011;74905;44.124;18.116;2024-02-16T05:07:37;178.88;;;40.63;;
84682;SDS011;74905;44.124;18.116;2024-02-16T05:10:03;115.03;;;40.67;;
84682;SDS011;74905;44.124;18.116;2024-02-16T05:12:29;127.95;;;42.22;;
84682;SDS011;74905;44.124;18.116;2024-02-16T05:14:54;155.40;;;40.40;;
84682;SDS011;74905;44.124;18.116;2024-02-16T05:17:20;115.35;;;41.67;;
84682;SDS011;74905;44.124;18.116;2024-02-16T05:19:47;127.38;;;39.10;;
84682;SDS011;74905;44.124;18.116;2024-02-16T05:22:13;137.45;;;39.33;;
84682;SDS011;74905;44.124;18.116;2024-02-16T05:24:39;128.13;;;40.85;;
84682;SDS011;74905;44.124;18.116;2024-02-16T05:27:05;107.57;;;36.75;;
84682;SDS011;74905;44.124;18.116;2024-02-16T05:31:59;132.18;;;39.03;;
84682;SDS011;74905;44.124;18.116;2024-02-16T05:34:25;113.35;;;38.67;;
84682;SDS011;74905;44.124;18.116;2024-02-16T05:36:51;119.57;;;38.95;;
84682;SDS011;74905;44.124;18.116;2024-02-16T05:39:16;137.48;;;39.38;;
84682;SDS011;74905;44.124;18.116;2024-02-16T05:41:56;120.47;;;38.65;;
84682;SDS011;74905;44.124;18.116;2024-02-16T05:44:22;132.27;;;42.38;;
84682;SDS011;74905;44.124;18.116;2024-02-16T05:46:48;128.73;;;38.95;;
84682;SDS011;74905;44.124;18.116;2024-02-16T05:49:14;149.95;;;40.13;;
84682;SDS011;74905;44.124;18.116;2024-02-16T05:51:43;127.97;;;41.88;;
84682;SDS011;74905;44.124;18.116;2024-02-16T05:54:29;111.88;;;40.20;;
84682;SDS011;74905;44.124;18.116;2024-02-16T05:56:54;111.93;;;38.67;;
84682;SDS011;74905;44.124;18.116;2024-02-16T05:59:20;105.43;;;38.40;;
84682;SDS011;74905;44.124;18.116;2024-02-16T06:01:47;96.88;;;37.83;;
84682;SDS011;74905;44.124;18.116;2024-02-16T06:04:12;111.13;;;38.08;;
84682;SDS011;74905;44.124;18.116;2024-02-16T06:06:38;116.32;;;43.88;;
84682;SDS011;74905;44.124;18.116;2024-02-16T06:09:04;100.63;;;41.47;;
84682;SDS011;74905;44.124;18.116;2024-02-16T06:11:31;100.75;;;37.38;;
84682;SDS011;74905;44.124;18.116;2024-02-16T06:13:57;120.82;;;41.10;;
84682;SDS011;74905;44.124;18.116;2024-02-16T06:16:22;123.18;;;40.95;;
84682;SDS011;74905;44.124;18.116;2024-02-16T06:18:48;152.90;;;41.28;;
84682;SDS011;74905;44.124;18.116;2024-02-16T06:21:14;129.85;;;41.53;;
84682;SDS011;74905;44.124;18.116;2024-02-16T06:23:41;123.40;;;44.13;;
84682;SDS011;74905;44.124;18.116;2024-02-16T06:26:06;163.90;;;41.88;;
84682;SDS011;74905;44.124;18.116;2024-02-16T06:28:32;134.38;;;39.97;;
84682;SDS011;74905;44.124;18.116;2024-02-16T06:30:57;116.22;;;39.92;;
84682;SDS011;74905;44.124;18.116;2024-02-16T06:33:23;116.45;;;39.08;;
84682;SDS011;74905;44.124;18.116;2024-02-16T06:35:48;128.98;;;39.60;;
84682;SDS011;74905;44.124;18.116;2024-02-16T06:38:15;135.90;;;39.55;;
84682;SDS011;74905;44.124;18.116;2024-02-16T06:40:41;130.15;;;38.22;;
84682;SDS011;74905;44.124;18.116;2024-02-16T06:43:06;147.20;;;43.88;;
84682;SDS011;74905;44.124;18.116;2024-02-16T06:45:34;117.50;;;40.90;;
84682;SDS011;74905;44.124;18.116;2024-02-16T06:48:01;125.20;;;39.53;;
84682;SDS011;74905;44.124;18.116;2024-02-16T06:50:27;120.93;;;44.35;;
84682;SDS011;74905;44.124;18.116;2024-02-16T06:52:54;141.68;;;45.00;;
84682;SDS011;74905;44.124;18.116;2024-02-16T06:55:20;145.15;;;46.78;;
84682;SDS011;74905;44.124;18.116;2024-02-16T06:57:46;147.10;;;48.85;;
84682;SDS011;74905;44.124;18.116;2024-02-16T07:00:13;134.13;;;44.75;;
84682;SDS011;74905;44.124;18.116;2024-02-16T07:02:40;179.90;;;48.40;;
84682;SDS011;74905;44.124;18.116;2024-02-16T07:05:07;145.07;;;45.60;;
84682;SDS011;74905;44.124;18.116;2024-02-16T07:07:33;155.95;;;42.30;;
84682;SDS011;74905;44.124;18.116;2024-02-16T07:10:01;103.18;;;39.35;;
84682;SDS011;74905;44.124;18.116;2024-02-16T07:12:27;128.27;;;41.10;;
84682;SDS011;74905;44.124;18.116;2024-02-16T07:14:53;137.15;;;45.75;;
84682;SDS011;74905;44.124;18.116;2024-02-16T07:17:19;153.90;;;44.40;;
84682;SDS011;74905;44.124;18.116;2024-02-16T07:19:44;123.53;;;43.47;;
84682;SDS011;74905;44.124;18.116;2024-02-16T07:22:10;141.45;;;45.72;;
84682;SDS011;74905;44.124;18.116;2024-02-16T07:24:37;151.18;;;44.40;;
84682;SDS011;74905;44.124;18.116;2024-02-16T07:27:03;146.32;;;47.83;;
84682;SDS011;74905;44.124;18.116;2024-02-16T07:29:32;136.70;;;46.83;;
84682;SDS011;74905;44.124;18.116;2024-02-16T07:31:57;139.90;;;46.17;;
84682;SDS011;74905;44.124;18.116;2024-02-16T07:34:23;158.90;;;47.05;;
84682;SDS011;74905;44.124;18.116;2024-02-16T07:36:49;170.75;;;49.03;;
84682;SDS011;74905;44.124;18.116;2024-02-16T07:39:15;168.05;;;52.45;;
84682;SDS011;74905;44.124;18.116;2024-02-16T07:41:40;173.52;;;48.63;;
84682;SDS011;74905;44.124;18.116;2024-02-16T07:44:06;154.82;;;50.45;;
84682;SDS011;74905;44.124;18.116;2024-02-16T07:46:31;169.50;;;48.60;;
84682;SDS011;74905;44.124;18.116;2024-02-16T07:48:57;165.25;;;51.38;;
84682;SDS011;74905;44.124;18.116;2024-02-16T07:51:23;150.68;;;50.58;;
84682;SDS011;74905;44.124;18.116;2024-02-16T07:53:49;157.70;;;52.15;;
84682;SDS011;74905;44.124;18.116;2024-02-16T07:56:15;165.60;;;51.10;;
84682;SDS011;74905;44.124;18.116;2024-02-16T07:58:41;168.27;;;52.63;;
84682;SDS011;74905;44.124;18.116;2024-02-16T08:01:11;184.82;;;54.80;;
84682;SDS011;74905;44.124;18.116;2024-02-16T08:03:40;162.43;;;53.95;;
84682;SDS011;74905;44.124;18.116;2024-02-16T08:06:08;163.27;;;53.03;;
84682;SDS011;74905;44.124;18.116;2024-02-16T08:08:33;176.88;;;58.20;;
84682;SDS011;74905;44.124;18.116;2024-02-16T08:10:59;162.68;;;54.83;;
84682;SDS011;74905;44.124;18.116;2024-02-16T08:13:24;164.70;;;53.08;;
84682;SDS011;74905;44.124;18.116;2024-02-16T08:15:50;172.55;;;54.80;;
84682;SDS011;74905;44.124;18.116;2024-02-16T08:18:17;207.52;;;65.65;;
84682;SDS011;74905;44.124;18.116;2024-02-16T08:20:43;191.77;;;61.17;;
84682;SDS011;74905;44.124;18.116;2024-02-16T08:23:11;170.75;;;54.70;;
84682;SDS011;74905;44.124;18.116;2024-02-16T08:25:37;178.55;;;56.40;;
84682;SDS011;74905;44.124;18.116;2024-02-16T08:28:03;184.73;;;58.42;;
84682;SDS011;74905;44.124;18.116;2024-02-16T08:30:28;159.77;;;55.15;;
84682;SDS011;74905;44.124;18.116;2024-02-16T08:32:54;194.85;;;63.83;;
84682;SDS011;74905;44.124;18.116;2024-02-16T08:35:24;161.45;;;58.50;;
84682;SDS011;74905;44.124;18.116;2024-02-16T08:37:59;169.35;;;58.28;;
84682;SDS011;74905;44.124;18.116;2024-02-16T08:40:26;145.68;;;51.80;;
84682;SDS011;74905;44.124;18.116;2024-02-16T08:42:55;147.55;;;53.80;;
84682;SDS011;74905;44.124;18.116;2024-02-16T08:45:20;165.80;;;57.47;;
84682;SDS011;74905;44.124;18.116;2024-02-16T08:47:46;169.75;;;59.35;;
84682;SDS011;74905;44.124;18.116;2024-02-16T08:50:11;157.63;;;55.30;;
84682;SDS011;74905;44.124;18.116;2024-02-16T08:52:37;143.10;;;52.22;;
84682;SDS011;74905;44.124;18.116;2024-02-16T08:55:03;155.10;;;53.80;;
84682;SDS011;74905;44.124;18.116;2024-02-16T08:57:31;159.18;;;54.00;;
84682;SDS011;74905;44.124;18.116;2024-02-16T08:59:57;144.38;;;51.38;;
84682;SDS011;74905;44.124;18.116;2024-02-16T09:02:23;145.35;;;54.58;;
84682;SDS011;74905;44.124;18.116;2024-02-16T09:04:48;162.10;;;55.15;;
84682;SDS011;74905;44.124;18.116;2024-02-16T09:07:14;173.90;;;59.17;;
84682;SDS011;74905;44.124;18.116;2024-02-16T09:09:39;160.45;;;56.90;;
84682;SDS011;74905;44.124;18.116;2024-02-16T09:12:05;152.65;;;57.47;;
84682;SDS011;74905;44.124;18.116;2024-02-16T09:14:31;162.60;;;58.80;;
84682;SDS011;74905;44.124;18.116;2024-02-16T09:16:57;173.65;;;64.68;;
84682;SDS011;74905;44.124;18.116;2024-02-16T09:19:24;159.77;;;56.50;;
84682;SDS011;74905;44.124;18.116;2024-02-16T09:21:50;167.18;;;60.83;;
84682;SDS011;74905;44.124;18.116;2024-02-16T09:24:16;164.10;;;59.95;;
84682;SDS011;74905;44.124;18.116;2024-02-16T09:26:44;169.27;;;60.58;;
84682;SDS011;74905;44.124;18.116;2024-02-16T09:29:12;159.00;;;63.10;;
84682;SDS011;74905;44.124;18.116;2024-02-16T09:31:39;175.32;;;62.10;;
84682;SDS011;74905;44.124;18.116;2024-02-16T09:34:07;177.27;;;70.20;;
84682;SDS011;74905;44.124;18.116;2024-02-16T09:36:33;178.60;;;70.43;;
84682;SDS011;74905;44.124;18.116;2024-02-16T09:39:01;169.45;;;68.45;;
84682;SDS011;74905;44.124;18.116;2024-02-16T09:41:27;159.88;;;64.38;;
84682;SDS011;74905;44.124;18.116;2024-02-16T09:43:53;159.10;;;67.75;;
84682;SDS011;74905;44.124;18.116;2024-02-16T09:46:19;160.50;;;67.03;;
84682;SDS011;74905;44.124;18.116;2024-02-16T09:48:46;162.10;;;68.75;;
84682;SDS011;74905;44.124;18.116;2024-02-16T09:51:17;131.43;;;60.05;;
84682;SDS011;74905;44.124;18.116;2024-02-16T09:53:43;135.68;;;59.28;;
84682;SDS011;74905;44.124;18.116;2024-02-16T09:56:08;147.35;;;65.00;;
84682;SDS011;74905;44.124;18.116;2024-02-16T09:58:35;138.13;;;58.13;;
84682;SDS011;74905;44.124;18.116;2024-02-16T10:01:01;130.55;;;59.10;;
84682;SDS011;74905;44.124;18.116;2024-02-16T10:03:28;127.95;;;59.00;;
84682;SDS011;74905;44.124;18.116;2024-02-16T10:06:05;129.10;;;58.60;;
84682;SDS011;74905;44.124;18.116;2024-02-16T10:08:32;113.75;;;55.58;;
84682;SDS011;74905;44.124;18.116;2024-02-16T10:11:02;106.78;;;52.50;;
84682;SDS011;74905;44.124;18.116;2024-02-16T10:13:29;104.70;;;49.95;;
84682;SDS011;74905;44.124;18.116;2024-02-16T10:16:13;109.47;;;55.58;;
84682;SDS011;74905;44.124;18.116;2024-02-16T10:18:39;117.85;;;59.15;;
84682;SDS011;74905;44.124;18.116;2024-02-16T10:21:05;106.35;;;52.65;;
84682;SDS011;74905;44.124;18.116;2024-02-16T10:23:31;91.43;;;48.00;;
84682;SDS011;74905;44.124;18.116;2024-02-16T10:25:56;93.47;;;50.22;;
84682;SDS011;74905;44.124;18.116;2024-02-16T10:28:24;88.28;;;50.33;;
84682;SDS011;74905;44.124;18.116;2024-02-16T10:30:56;90.38;;;50.00;;
84682;SDS011;74905;44.124;18.116;2024-02-16T10:33:27;79.32;;;44.78;;
84682;SDS011;74905;44.124;18.116;2024-02-16T10:35:54;85.10;;;46.40;;
84682;SDS011;74905;44.124;18.116;2024-02-16T10:38:22;80.18;;;42.83;;
84682;SDS011;74905;44.124;18.116;2024-02-16T10:40:48;75.95;;;41.95;;
84682;SDS011;74905;44.124;18.116;2024-02-16T10:43:16;74.65;;;40.80;;
84682;SDS011;74905;44.124;18.116;2024-02-16T10:45:43;65.60;;;37.38;;
84682;SDS011;74905;44.124;18.116;2024-02-16T10:48:10;57.70;;;34.50;;
84682;SDS011;74905;44.124;18.116;2024-02-16T10:50:36;67.60;;;39.28;;
84682;SDS011;74905;44.124;18.116;2024-02-16T10:53:13;65.38;;;39.05;;
84682;SDS011;74905;44.124;18.116;2024-02-16T10:55:40;71.05;;;43.42;;
84682;SDS011;74905;44.124;18.116;2024-02-16T10:58:08;62.88;;;37.72;;
84682;SDS011;74905;44.124;18.116;2024-02-16T11:00:34;66.40;;;39.85;;
84682;SDS011;74905;44.124;18.116;2024-02-16T11:03:02;68.68;;;38.92;;
84682;SDS011;74905;44.124;18.116;2024-02-16T11:05:32;65.82;;;38.05;;
84682;SDS011;74905;44.124;18.116;2024-02-16T11:08:03;48.25;;;28.00;;
84682;SDS011;74905;44.124;18.116;2024-02-16T11:10:30;36.95;;;22.92;;
84682;SDS011;74905;44.124;18.116;2024-02-16T11:13:00;42.67;;;25.50;;
84682;SDS011;74905;44.124;18.116;2024-02-16T11:15:28;39.88;;;24.63;;
84682;SDS011;74905;44.124;18.116;2024-02-16T11:17:56;42.85;;;23.05;;
84682;SDS011;74905;44.124;18.116;2024-02-16T11:20:25;42.10;;;25.63;;
84682;SDS011;74905;44.124;18.116;2024-02-16T11:22:51;34.05;;;22.52;;
84682;SDS011;74905;44.124;18.116;2024-02-16T11:25:18;35.60;;;22.85;;
84682;SDS011;74905;44.124;18.116;2024-02-16T11:27:47;27.92;;;20.17;;
84682;SDS011;74905;44.124;18.116;2024-02-16T11:30:13;30.30;;;20.15;;
84682;SDS011;74905;44.124;18.116;2024-02-16T11:32:40;27.95;;;18.90;;
84682;SDS011;74905;44.124;18.116;2024-02-16T11:35:09;30.73;;;18.55;;
84682;SDS011;74905;44.124;18.116;2024-02-16T11:37:36;10.05;;;7.25;;
84682;SDS011;74905;44.124;18.116;2024-02-16T11:40:05;16.40;;;12.07;;
84682;SDS011;74905;44.124;18.116;2024-02-16T11:42:33;25.00;;;16.90;;
84682;SDS011;74905;44.124;18.116;2024-02-16T11:45:00;22.15;;;16.15;;
84682;SDS011;74905;44.124;18.116;2024-02-16T11:47:26;25.35;;;16.92;;
84682;SDS011;74905;44.124;18.116;2024-02-16T11:50:02;23.75;;;17.25;;
84682;SDS011;74905;44.124;18.116;2024-02-16T11:52:34;24.25;;;17.20;;
84682;SDS011;74905;44.124;18.116;2024-02-16T11:55:00;24.05;;;16.90;;
84682;SDS011;74905;44.124;18.116;2024-02-16T11:57:26;25.40;;;17.23;;
84682;SDS011;74905;44.124;18.116;2024-02-16T11:59:53;24.50;;;17.00;;
84682;SDS011;74905;44.124;18.116;2024-02-16T12:02:20;24.08;;;16.30;;
84682;SDS011;74905;44.124;18.116;2024-02-16T12:04:47;21.23;;;13.63;;
84682;SDS011;74905;44.124;18.116;2024-02-16T12:07:13;23.33;;;15.80;;
84682;SDS011;74905;44.124;18.116;2024-02-16T12:09:41;22.80;;;15.55;;
84682;SDS011;74905;44.124;18.116;2024-02-16T12:12:07;23.90;;;16.48;;
84682;SDS011;74905;44.124;18.116;2024-02-16T12:14:33;22.05;;;15.48;;
84682;SDS011;74905;44.124;18.116;2024-02-16T12:17:00;23.13;;;14.63;;
84682;SDS011;74905;44.124;18.116;2024-02-16T12:19:25;19.63;;;13.30;;
84682;SDS011;74905;44.124;18.116;2024-02-16T12:21:51;20.75;;;14.35;;
84682;SDS011;74905;44.124;18.116;2024-02-16T12:24:19;21.60;;;13.18;;
84682;SDS011;74905;44.124;18.116;2024-02-16T12:26:45;19.33;;;13.02;;
84682;SDS011;74905;44.124;18.116;2024-02-16T12:29:11;24.42;;;13.40;;
84682;SDS011;74905;44.124;18.116;2024-02-16T12:31:42;20.38;;;11.60;;
84682;SDS011;74905;44.124;18.116;2024-02-16T12:34:10;15.15;;;11.02;;
84682;SDS011;74905;44.124;18.116;2024-02-16T12:36:36;17.98;;;11.55;;
84682;SDS011;74905;44.124;18.116;2024-02-16T12:39:04;20.30;;;11.52;;
84682;SDS011;74905;44.124;18.116;2024-02-16T12:41:31;11.82;;;8.00;;
84682;SDS011;74905;44.124;18.116;2024-02-16T12:44:01;19.20;;;11.45;;
84682;SDS011;74905;44.124;18.116;2024-02-16T12:46:27;18.45;;;9.98;;
84682;SDS011;74905;44.124;18.116;2024-02-16T12:48:53;15.77;;;9.63;;
84682;SDS011;74905;44.124;18.116;2024-02-16T12:51:19;10.60;;;7.65;;
84682;SDS011;74905;44.124;18.116;2024-02-16T12:53:45;10.32;;;6.30;;
84682;SDS011;74905;44.124;18.116;2024-02-16T12:56:11;10.35;;;6.38;;
84682;SDS011;74905;44.124;18.116;2024-02-16T12:58:36;12.63;;;7.80;;
84682;SDS011;74905;44.124;18.116;2024-02-16T13:01:02;13.48;;;7.95;;
84682;SDS011;74905;44.124;18.116;2024-02-16T13:03:31;14.15;;;7.80;;
84682;SDS011;74905;44.124;18.116;2024-02-16T13:06:00;6.60;;;4.50;;
84682;SDS011;74905;44.124;18.116;2024-02-16T13:08:27;7.15;;;5.18;;
84682;SDS011;74905;44.124;18.116;2024-02-16T13:10:53;10.05;;;6.75;;
84682;SDS011;74905;44.124;18.116;2024-02-16T13:13:19;8.65;;;6.28;;
84682;SDS011;74905;44.124;18.116;2024-02-16T13:15:46;9.02;;;5.55;;
84682;SDS011;74905;44.124;18.116;2024-02-16T13:18:15;8.32;;;5.10;;
84682;SDS011;74905;44.124;18.116;2024-02-16T13:20:41;8.93;;;4.63;;
84682;SDS011;74905;44.124;18.116;2024-02-16T13:23:08;12.32;;;6.93;;
84682;SDS011;74905;44.124;18.116;2024-02-16T13:25:34;7.82;;;5.65;;
84682;SDS011;74905;44.124;18.116;2024-02-16T13:28:01;11.20;;;4.90;;
84682;SDS011;74905;44.124;18.116;2024-02-16T13:30:27;5.78;;;3.63;;
84682;SDS011;74905;44.124;18.116;2024-02-16T13:32:55;11.02;;;6.60;;
84682;SDS011;74905;44.124;18.116;2024-02-16T13:35:21;9.02;;;5.15;;
84682;SDS011;74905;44.124;18.116;2024-02-16T13:37:47;6.15;;;4.53;;
84682;SDS011;74905;44.124;18.116;2024-02-16T13:40:13;4.20;;;2.75;;
84682;SDS011;74905;44.124;18.116;2024-02-16T13:42:39;11.02;;;5.90;;
84682;SDS011;74905;44.124;18.116;2024-02-16T13:47:34;11.10;;;7.07;;
84682;SDS011;74905;44.124;18.116;2024-02-16T13:49:59;10.93;;;6.75;;
84682;SDS011;74905;44.124;18.116;2024-02-16T13:52:25;12.07;;;7.97;;
84682;SDS011;74905;44.124;18.116;2024-02-16T13:54:51;13.25;;;8.40;;
84682;SDS011;74905;44.124;18.116;2024-02-16T13:57:17;13.50;;;9.10;;
84682;SDS011;74905;44.124;18.116;2024-02-16T13:59:45;13.13;;;8.05;;
84682;SDS011;74905;44.124;18.116;2024-02-16T14:02:11;14.15;;;8.38;;